Back to Top

Language: 

My Weather Underground Personal Weather Station Historical Data with Graphs...

Delerius Weather Station Historical Data
Daily Summary for August 16, 2017 Units:  English    Metric   Both
« Previous Day
Next Day »
Daily Weekly Monthly Yearly Custom
  High: Low: Average:
Temperature: 70.0 °F 46.6 °F 59.6 °F
Dew Point: 55.3 °F 44.7 °F 50.9 °F
Humidity: 95 % 53 % 74 %
Wind Speed: 14.0 mph 0.0 mph 6.2 mph
Wind Gust: 29.0 mph - -
Wind:- - SSW
Pressure: 30.06 in 29.83 in -
Precipitation: 0.00 in    
Historical Graphs
 
 
Tabular Data for August 16, 2017
Time Temperature Dew Point Pressure Wind Wind Speed Wind Gust Humidity Rainfall Rate (Hourly) solar Conditions
00:00 52.2 °F 48.4 °F 30.06 in WNW 2.0 mph 5.0 mph 87 % 0.00 in 0 W/m2
00:05 52.2 °F 48.4 °F 30.06 in WNW 1.0 mph 4.0 mph 87 % 0.00 in 0 W/m2
00:10 52.2 °F 48.4 °F 30.06 in WNW 1.0 mph 2.0 mph 87 % 0.00 in 0 W/m2
00:14 52.0 °F 47.9 °F 30.06 in Calm   2.0 mph 86 % 0.00 in 0 W/m2
00:19 51.6 °F 47.6 °F 30.06 in Calm   2.0 mph 86 % 0.00 in 0 W/m2
00:24 51.4 °F 47.7 °F 30.06 in Calm     87 % 0.00 in 0 W/m2
00:29 51.1 °F 47.3 °F 30.06 in Calm     87 % 0.00 in 0 W/m2
00:34 51.1 °F 47.3 °F 30.06 in Calm     87 % 0.00 in 0 W/m2
00:39 50.9 °F 47.5 °F 30.06 in Calm     88 % 0.00 in 0 W/m2
00:44 50.9 °F 47.8 °F 30.05 in Calm     89 % 0.00 in 0 W/m2
00:50 50.7 °F 47.3 °F 30.05 in Calm     88 % 0.00 in 0 W/m2
00:55 50.5 °F 47.1 °F 30.06 in Calm   2.0 mph 88 % 0.00 in 0 W/m2
01:00 50.4 °F 47.2 °F 30.06 in WNW 1.0 mph 4.0 mph 89 % 0.00 in 0 W/m2
01:05 50.2 °F 47.1 °F 30.06 in WNW 2.0 mph 4.0 mph 89 % 0.00 in 0 W/m2
01:10 50.2 °F 47.1 °F 30.05 in WNW 2.0 mph 4.0 mph 89 % 0.00 in 0 W/m2
01:15 50.2 °F 47.4 °F 30.05 in WNW 1.0 mph 4.0 mph 90 % 0.00 in 0 W/m2
01:20 50.2 °F 47.4 °F 30.06 in Calm   2.0 mph 90 % 0.00 in 0 W/m2
01:25 50.0 °F 47.2 °F 30.05 in Calm   2.0 mph 90 % 0.00 in 0 W/m2
01:30 49.8 °F 46.7 °F 30.05 in Calm     89 % 0.00 in 0 W/m2
01:35 49.6 °F 46.8 °F 30.06 in Calm     90 % 0.00 in 0 W/m2
01:40 49.5 °F 46.6 °F 30.06 in Calm     90 % 0.00 in 0 W/m2
01:45 49.3 °F 46.5 °F 30.06 in Calm     90 % 0.00 in 0 W/m2
01:50 49.1 °F 46.3 °F 30.05 in Calm   3.0 mph 90 % 0.00 in 0 W/m2
01:55 48.9 °F 46.1 °F 30.05 in WNW 1.0 mph 3.0 mph 90 % 0.00 in 0 W/m2
02:00 49.1 °F 46.6 °F 30.06 in Calm   4.0 mph 91 % 0.00 in 0 W/m2
02:05 48.9 °F 46.1 °F 30.06 in Calm   4.0 mph 90 % 0.00 in 0 W/m2
02:10 48.9 °F 46.4 °F 30.06 in Calm     91 % 0.00 in 0 W/m2
02:15 48.7 °F 45.9 °F 30.06 in Calm     90 % 0.00 in 0 W/m2
02:20 48.6 °F 46.1 °F 30.06 in Calm     91 % 0.00 in 0 W/m2
02:25 48.6 °F 46.1 °F 30.06 in Calm     91 % 0.00 in 0 W/m2
02:30 48.6 °F 46.1 °F 30.06 in Calm     91 % 0.00 in 0 W/m2
02:35 48.4 °F 45.9 °F 30.06 in Calm     91 % 0.00 in 0 W/m2
02:40 48.4 °F 45.9 °F 30.06 in Calm     91 % 0.00 in 0 W/m2
02:45 48.4 °F 46.2 °F 30.06 in Calm     92 % 0.00 in 0 W/m2
02:50 48.4 °F 46.2 °F 30.06 in Calm     92 % 0.00 in 0 W/m2
02:55 48.4 °F 46.2 °F 30.05 in Calm   3.0 mph 92 % 0.00 in 0 W/m2
03:00 48.6 °F 46.3 °F 30.05 in WNW 1.0 mph 3.0 mph 92 % 0.00 in 0 W/m2
03:05 48.6 °F 46.3 °F 30.06 in Calm   2.0 mph 92 % 0.00 in 0 W/m2
03:10 48.6 °F 46.3 °F 30.06 in Calm     92 % 0.00 in 0 W/m2
03:15 48.6 °F 46.3 °F 30.05 in Calm   1.0 mph 92 % 0.00 in 0 W/m2
03:20 48.2 °F 45.7 °F 30.05 in Calm   1.0 mph 91 % 0.00 in 0 W/m2
03:25 47.8 °F 45.3 °F 30.05 in Calm     91 % 0.00 in 0 W/m2
03:30 47.8 °F 45.3 °F 30.05 in Calm     91 % 0.00 in 0 W/m2
03:35 47.7 °F 45.2 °F 30.05 in Calm     91 % 0.00 in 0 W/m2
03:40 47.7 °F 45.2 °F 30.06 in Calm     91 % 0.00 in 0 W/m2
03:45 47.7 °F 45.2 °F 30.05 in Calm     91 % 0.00 in 0 W/m2
03:50 47.5 °F 45.3 °F 30.05 in Calm   2.0 mph 92 % 0.00 in 0 W/m2
03:56 47.7 °F 45.5 °F 30.05 in Calm   2.0 mph 92 % 0.00 in 0 W/m2
04:01 47.7 °F 45.5 °F 30.05 in Calm   1.0 mph 92 % 0.00 in 0 W/m2
04:06 47.7 °F 45.5 °F 30.05 in Calm   1.0 mph 92 % 0.00 in 0 W/m2
04:11 47.7 °F 45.5 °F 30.05 in Calm     92 % 0.00 in 0 W/m2
04:16 47.5 °F 45.3 °F 30.05 in Calm     92 % 0.00 in 0 W/m2
04:21 47.3 °F 45.1 °F 30.05 in Calm     92 % 0.00 in 0 W/m2
04:22 47.5 °F 45.3 °F 30.05 in Calm     92 % 0.00 in 0 W/m2
04:25 47.3 °F 45.1 °F 30.04 in Calm   2.0 mph 92 % 0.00 in 0 W/m2
04:26 47.3 °F 45.1 °F 30.04 in Calm   2.0 mph 92 % 0.00 in 0 W/m2
04:31 47.5 °F 45.6 °F 30.05 in Calm   2.0 mph 93 % 0.00 in 0 W/m2
04:36 47.5 °F 45.6 °F 30.05 in Calm     93 % 0.00 in 0 W/m2
04:41 47.5 °F 45.6 °F 30.04 in Calm     93 % 0.00 in 0 W/m2
04:46 47.3 °F 45.4 °F 30.04 in Calm     93 % 0.00 in 0 W/m2
04:51 47.1 °F 44.9 °F 30.05 in Calm     92 % 0.00 in 0 W/m2
04:56 46.9 °F 45.0 °F 30.05 in Calm   2.0 mph 93 % 0.00 in 0 W/m2
05:01 46.9 °F 45.0 °F 30.05 in Calm   2.0 mph 93 % 0.00 in 0 W/m2
05:06 46.9 °F 45.0 °F 30.05 in Calm   2.0 mph 93 % 0.00 in 0 W/m2
05:11 46.9 °F 45.0 °F 30.05 in Calm     93 % 0.00 in 0 W/m2
05:16 46.8 °F 44.8 °F 30.05 in Calm     93 % 0.00 in 0 W/m2
05:21 46.8 °F 44.8 °F 30.05 in Calm     93 % 0.00 in 0 W/m2
05:26 46.8 °F 44.8 °F 30.05 in Calm     93 % 0.00 in 0 W/m2
05:31 46.6 °F 44.7 °F 30.05 in Calm     93 % 0.00 in 0 W/m2
05:36 46.6 °F 44.7 °F 30.05 in Calm   1.0 mph 93 % 0.00 in 0 W/m2
05:41 46.6 °F 44.7 °F 30.05 in Calm   1.0 mph 93 % 0.00 in 0 W/m2
05:46 46.6 °F 44.7 °F 30.05 in Calm   1.0 mph 93 % 0.00 in 5 W/m2
05:51 46.8 °F 45.1 °F 30.06 in Calm     94 % 0.00 in 5 W/m2
05:56 46.8 °F 45.1 °F 30.05 in Calm     94 % 0.00 in 5 W/m2
06:01 46.8 °F 44.8 °F 30.05 in Calm     93 % 0.00 in 7 W/m2
06:07 46.9 °F 45.3 °F 30.06 in Calm     94 % 0.00 in 9 W/m2
06:12 47.1 °F 45.5 °F 30.06 in Calm     94 % 0.00 in 11 W/m2
06:17 47.1 °F 45.5 °F 30.06 in Calm     94 % 0.00 in 14 W/m2
06:22 47.1 °F 45.5 °F 30.06 in Calm     94 % 0.00 in 18 W/m2
06:27 47.3 °F 45.7 °F 30.06 in Calm     94 % 0.00 in 21 W/m2
06:32 47.5 °F 45.8 °F 30.06 in Calm     94 % 0.00 in 23 W/m2
06:37 47.3 °F 45.7 °F 30.06 in Calm     94 % 0.00 in 26 W/m2
06:42 47.5 °F 45.8 °F 30.06 in Calm     94 % 0.00 in 30 W/m2
06:47 47.7 °F 46.0 °F 30.06 in Calm   2.0 mph 94 % 0.00 in 33 W/m2
06:52 47.8 °F 46.2 °F 30.06 in Calm   2.0 mph 94 % 0.00 in 35 W/m2
06:57 47.8 °F 46.2 °F 30.06 in Calm   2.0 mph 94 % 0.00 in 40 W/m2
07:02 48.2 °F 46.6 °F 30.06 in Calm     94 % 0.00 in 46 W/m2
07:07 48.4 °F 46.7 °F 30.06 in Calm     94 % 0.00 in 53 W/m2
07:12 48.7 °F 47.4 °F 30.06 in Calm   1.0 mph 95 % 0.00 in 70 W/m2
07:17 49.3 °F 47.9 °F 30.06 in Calm   1.0 mph 95 % 0.00 in 160 W/m2
07:22 49.8 °F 48.4 °F 30.06 in Calm   2.0 mph 95 % 0.00 in 206 W/m2
07:27 50.9 °F 49.5 °F 30.06 in Calm   2.0 mph 95 % 0.00 in 149 W/m2
07:32 51.6 °F 49.9 °F 30.06 in Calm   3.0 mph 94 % 0.00 in 223 W/m2
07:37 52.7 °F 50.7 °F 30.06 in Calm   3.0 mph 93 % 0.00 in 267 W/m2
07:42 53.8 °F 51.2 °F 30.06 in Calm   2.0 mph 91 % 0.00 in 171 W/m2
07:47 54.1 °F 51.0 °F 30.06 in Calm   2.0 mph 89 % 0.00 in 193 W/m2
07:52 54.7 °F 51.2 °F 30.06 in Calm   4.0 mph 88 % 0.00 in 144 W/m2
07:57 55.0 °F 51.2 °F 30.05 in WNW 1.0 mph 5.0 mph 87 % 0.00 in 123 W/m2
08:02 55.2 °F 51.1 °F 30.06 in SE 3.0 mph 6.0 mph 86 % 0.00 in 135 W/m2
08:07 55.4 °F 51.3 °F 30.06 in ESE 4.0 mph 6.0 mph 86 % 0.00 in 121 W/m2
08:12 55.6 °F 51.1 °F 30.06 in ESE 2.0 mph 6.0 mph 85 % 0.00 in 127 W/m2
08:17 55.8 °F 51.3 °F 30.06 in ESE 3.0 mph 6.0 mph 85 % 0.00 in 146 W/m2
08:22 55.8 °F 51.3 °F 30.06 in ESE 4.0 mph 6.0 mph 85 % 0.00 in 158 W/m2
08:27 56.1 °F 51.7 °F 30.06 in ESE 4.0 mph 7.0 mph 85 % 0.00 in 297 W/m2
08:32 56.5 °F 52.0 °F 30.06 in ESE 4.0 mph 7.0 mph 85 % 0.00 in 260 W/m2
08:37 56.8 °F 52.1 °F 30.06 in ESE 4.0 mph 8.0 mph 84 % 0.00 in 283 W/m2
08:42 56.8 °F 52.1 °F 30.06 in SE 5.0 mph 8.0 mph 84 % 0.00 in 271 W/m2
08:47 57.4 °F 52.3 °F 30.06 in SE 4.0 mph 7.0 mph 83 % 0.00 in 295 W/m2
08:52 57.6 °F 52.4 °F 30.06 in ESE 4.0 mph 8.0 mph 83 % 0.00 in 341 W/m2
08:57 58.1 °F 52.6 °F 30.06 in ESE 3.0 mph 8.0 mph 82 % 0.00 in 295 W/m2
09:02 58.6 °F 53.2 °F 30.06 in East 1.0 mph 5.0 mph 82 % 0.00 in 327 W/m2
09:07 59.0 °F 52.8 °F 30.06 in ESE 3.0 mph 7.0 mph 80 % 0.00 in 366 W/m2
09:12 59.2 °F 52.3 °F 30.06 in SSE 4.0 mph 9.0 mph 78 % 0.00 in 362 W/m2
09:17 59.4 °F 52.8 °F 30.06 in South 4.0 mph 9.0 mph 79 % 0.00 in 482 W/m2
09:22 59.7 °F 52.5 °F 30.06 in South 4.0 mph 10.0 mph 77 % 0.00 in 420 W/m2
09:27 60.1 °F 52.1 °F 30.06 in South 5.0 mph 10.0 mph 75 % 0.00 in 318 W/m2
09:32 60.3 °F 51.9 °F 30.06 in South 6.0 mph 12.0 mph 74 % 0.00 in 246 W/m2
09:37 60.3 °F 51.9 °F 30.06 in SSW 8.0 mph 18.0 mph 74 % 0.00 in 229 W/m2
09:42 60.3 °F 52.3 °F 30.06 in SSW 7.0 mph 18.0 mph 75 % 0.00 in 264 W/m2
09:47 60.4 °F 52.8 °F 30.06 in SSW 5.0 mph 10.0 mph 76 % 0.00 in 343 W/m2
09:52 60.6 °F 52.6 °F 30.06 in SSW 5.0 mph 10.0 mph 75 % 0.00 in 394 W/m2
09:57 61.0 °F 53.0 °F 30.06 in South 6.0 mph 10.0 mph 75 % 0.00 in 457 W/m2
10:02 61.2 °F 53.2 °F 30.06 in South 6.0 mph 10.0 mph 75 % 0.00 in 366 W/m2
10:07 61.3 °F 53.7 °F 30.06 in South 6.0 mph 9.0 mph 76 % 0.00 in 278 W/m2
10:13 61.5 °F 53.2 °F 30.06 in SSW 6.0 mph 13.0 mph 74 % 0.00 in 422 W/m2
10:18 61.3 °F 52.6 °F 30.06 in SW 9.0 mph 14.0 mph 73 % 0.00 in 687 W/m2
10:23 61.5 °F 53.2 °F 30.05 in SW 9.0 mph 14.0 mph 74 % 0.00 in 728 W/m2
10:28 62.1 °F 53.3 °F 30.05 in SW 8.0 mph 12.0 mph 73 % 0.00 in 679 W/m2
10:33 62.4 °F 53.3 °F 30.05 in SW 10.0 mph 16.0 mph 72 % 0.00 in 747 W/m2
10:38 62.8 °F 52.8 °F 30.04 in SSW 11.0 mph 18.0 mph 70 % 0.00 in 775 W/m2
10:43 63.0 °F 52.2 °F 30.04 in SSW 11.0 mph 18.0 mph 68 % 0.00 in 482 W/m2
10:48 63.1 °F 52.4 °F 30.04 in SSW 11.0 mph 18.0 mph 68 % 0.00 in 629 W/m2
10:53 63.3 °F 52.6 °F 30.04 in SSW 10.0 mph 21.0 mph 68 % 0.00 in 624 W/m2
10:58 63.7 °F 52.1 °F 30.04 in SSW 11.0 mph 21.0 mph 66 % 0.00 in 489 W/m2
11:03 63.7 °F 52.1 °F 30.04 in SSW 12.0 mph 19.0 mph 66 % 0.00 in 390 W/m2
11:08 63.7 °F 52.5 °F 30.04 in SSW 11.0 mph 20.0 mph 67 % 0.00 in 466 W/m2
11:13 63.7 °F 52.5 °F 30.03 in SSW 10.0 mph 20.0 mph 67 % 0.00 in 909 W/m2
11:18 64.2 °F 52.2 °F 30.03 in SSW 12.0 mph 20.0 mph 65 % 0.00 in 846 W/m2
11:23 64.8 °F 52.7 °F 30.03 in SW 12.0 mph 19.0 mph 65 % 0.00 in 884 W/m2
11:28 65.1 °F 52.6 °F 30.03 in SSW 11.0 mph 18.0 mph 64 % 0.00 in 403 W/m2
11:33 65.1 °F 53.1 °F 30.03 in SW 11.0 mph 18.0 mph 65 % 0.00 in 742 W/m2
11:38 65.7 °F 53.6 °F 30.02 in SSW 10.0 mph 18.0 mph 65 % 0.00 in 830 W/m2
11:43 66.2 °F 53.7 °F 30.02 in SSW 10.0 mph 21.0 mph 64 % 0.00 in 891 W/m2
11:48 66.4 °F 53.4 °F 30.02 in South 10.0 mph 21.0 mph 63 % 0.00 in 925 W/m2
11:53 66.2 °F 53.2 °F 30.02 in SSW 10.0 mph 18.0 mph 63 % 0.00 in 388 W/m2
11:58 66.0 °F 53.9 °F 30.02 in SSW 10.0 mph 21.0 mph 65 % 0.00 in 838 W/m2
12:03 66.4 °F 53.4 °F 30.02 in SSW 10.0 mph 21.0 mph 63 % 0.00 in 928 W/m2
12:08 66.6 °F 53.6 °F 30.02 in SSW 10.0 mph 21.0 mph 63 % 0.00 in 717 W/m2
12:13 66.7 °F 52.9 °F 30.01 in SW 10.0 mph 23.0 mph 61 % 0.00 in 969 W/m2
12:18 66.7 °F 53.3 °F 30.01 in SW 12.0 mph 23.0 mph 62 % 0.00 in 912 W/m2
12:23 67.1 °F 52.3 °F 30.01 in SW 12.0 mph 21.0 mph 59 % 0.00 in 944 W/m2
12:28 67.3 °F 52.5 °F 30.01 in SW 12.0 mph 21.0 mph 59 % 0.00 in 1013 W/m2
12:33 66.9 °F 51.7 °F 30.01 in SSW 13.0 mph 24.0 mph 58 % 0.00 in 613 W/m2
12:38 66.7 °F 52.4 °F 30.01 in SSW 14.0 mph 24.0 mph 60 % 0.00 in 536 W/m2
12:43 66.9 °F 52.6 °F 30.01 in SSW 13.0 mph 22.0 mph 60 % 0.00 in 517 W/m2
12:48 66.7 °F 53.3 °F 30.01 in SSW 12.0 mph 22.0 mph 62 % 0.00 in 691 W/m2
12:53 66.6 °F 52.2 °F 30.00 in SSW 11.0 mph 21.0 mph 60 % 0.00 in 489 W/m2
12:58 66.6 °F 53.1 °F 30.00 in SW 10.0 mph 18.0 mph 62 % 0.00 in 388 W/m2
13:03 66.9 °F 53.0 °F 30.00 in SSW 9.0 mph 20.0 mph 61 % 0.00 in 867 W/m2
13:08 67.3 °F 52.9 °F 30.00 in South 9.0 mph 20.0 mph 60 % 0.00 in 469 W/m2
13:13 67.6 °F 53.7 °F 30.00 in South 9.0 mph 19.0 mph 61 % 0.00 in 844 W/m2
13:18 67.6 °F 53.3 °F 30.00 in SSW 9.0 mph 18.0 mph 60 % 0.00 in 867 W/m2
13:23 67.6 °F 52.8 °F 30.00 in SSW 10.0 mph 18.0 mph 59 % 0.00 in 742 W/m2
13:28 67.6 °F 52.8 °F 29.99 in SSW 10.0 mph 20.0 mph 59 % 0.00 in 410 W/m2
13:33 67.5 °F 53.1 °F 30.00 in SSW 10.0 mph 21.0 mph 60 % 0.00 in 489 W/m2
13:38 67.6 °F 52.3 °F 30.00 in SW 11.0 mph 21.0 mph 58 % 0.00 in 410 W/m2
13:43 67.6 °F 52.3 °F 30.00 in SSW 12.0 mph 24.0 mph 58 % 0.00 in 942 W/m2
13:48 68.2 °F 52.8 °F 30.00 in SSW 11.0 mph 24.0 mph 58 % 0.00 in 874 W/m2
13:54 68.2 °F 53.3 °F 30.00 in SSW 11.0 mph 21.0 mph 59 % 0.00 in 390 W/m2
13:59 68.5 °F 53.2 °F 30.00 in SW 11.0 mph 21.0 mph 58 % 0.00 in 684 W/m2
14:04 68.7 °F 52.9 °F 30.00 in SW 12.0 mph 22.0 mph 57 % 0.00 in 274 W/m2
14:09 68.4 °F 52.5 °F 30.00 in SSW 12.0 mph 22.0 mph 57 % 0.00 in 954 W/m2
14:14 68.0 °F 52.7 °F 30.00 in SSW 12.0 mph 22.0 mph 58 % 0.00 in 954 W/m2
14:19 68.2 °F 53.3 °F 29.99 in SSW 11.0 mph 20.0 mph 59 % 0.00 in 355 W/m2
14:24 68.2 °F 52.8 °F 29.99 in SSW 10.0 mph 19.0 mph 58 % 0.00 in 209 W/m2
14:29 68.2 °F 52.8 °F 29.99 in SW 11.0 mph 19.0 mph 58 % 0.00 in 900 W/m2
14:34 68.2 °F 52.8 °F 29.99 in SSW 11.0 mph 24.0 mph 58 % 0.00 in 895 W/m2
14:39 68.4 °F 53.0 °F 29.99 in SSW 11.0 mph 24.0 mph 58 % 0.00 in 860 W/m2
14:44 68.4 °F 53.0 °F 29.98 in SSW 12.0 mph 21.0 mph 58 % 0.00 in 916 W/m2
14:49 68.4 °F 53.0 °F 29.98 in SW 13.0 mph 21.0 mph 58 % 0.00 in 700 W/m2
14:54 68.5 °F 53.2 °F 29.98 in SW 11.0 mph 19.0 mph 58 % 0.00 in 851 W/m2
14:59 68.7 °F 52.4 °F 29.98 in SSW 11.0 mph 19.0 mph 56 % 0.00 in 909 W/m2
15:04 69.1 °F 52.7 °F 29.98 in SSW 11.0 mph 19.0 mph 56 % 0.00 in 853 W/m2
15:09 68.9 °F 52.6 °F 29.97 in South 10.0 mph 19.0 mph 56 % 0.00 in 940 W/m2
15:14 69.1 °F 52.2 °F 29.97 in SSW 11.0 mph 22.0 mph 55 % 0.00 in 898 W/m2
15:19 69.3 °F 52.4 °F 29.97 in SSW 12.0 mph 22.0 mph 55 % 0.00 in 301 W/m2
15:24 69.1 °F 52.2 °F 29.97 in SSW 11.0 mph 21.0 mph 55 % 0.00 in 759 W/m2
15:29 69.4 °F 52.6 °F 29.97 in SSW 11.0 mph 21.0 mph 55 % 0.00 in 895 W/m2
15:34 70.0 °F 52.6 °F 29.96 in SSW 12.0 mph 26.0 mph 54 % 0.00 in 914 W/m2
15:39 69.8 °F 51.9 °F 29.96 in SSW 12.0 mph 26.0 mph 53 % 0.00 in 229 W/m2
15:44 69.4 °F 51.6 °F 29.96 in SSW 11.0 mph 21.0 mph 53 % 0.00 in 262 W/m2
15:49 69.1 °F 52.2 °F 29.96 in SSW 10.0 mph 21.0 mph 55 % 0.00 in 385 W/m2
15:54 69.3 °F 51.9 °F 29.96 in SSW 8.0 mph 19.0 mph 54 % 0.00 in 264 W/m2
15:59 69.1 °F 51.7 °F 29.96 in South 9.0 mph 18.0 mph 54 % 0.00 in 234 W/m2
16:04 68.9 °F 52.1 °F 29.96 in South 10.0 mph 20.0 mph 55 % 0.00 in 325 W/m2
16:09 68.9 °F 52.1 °F 29.96 in SSW 10.0 mph 20.0 mph 55 % 0.00 in 316 W/m2
16:14 68.9 °F 52.1 °F 29.96 in SSW 9.0 mph 18.0 mph 55 % 0.00 in 250 W/m2
16:19 68.7 °F 51.4 °F 29.96 in SSW 9.0 mph 19.0 mph 54 % 0.00 in 214 W/m2
16:24 68.5 °F 51.2 °F 29.95 in SW 11.0 mph 21.0 mph 54 % 0.00 in 246 W/m2
16:29 68.4 °F 52.0 °F 29.95 in SW 11.0 mph 21.0 mph 56 % 0.00 in 209 W/m2
16:34 68.2 °F 51.9 °F 29.95 in SW 10.0 mph 21.0 mph 56 % 0.00 in 207 W/m2
16:37 68.2 °F 51.9 °F 29.95 in SSW 10.0 mph 21.0 mph 56 % 0.00 in 186 W/m2
16:41 68.2 °F 51.9 °F 29.95 in SSW 10.0 mph 18.0 mph 56 % 0.00 in 176 W/m2
16:46 68.0 °F 51.7 °F 29.94 in SSW 11.0 mph 18.0 mph 56 % 0.00 in 192 W/m2
16:51 68.0 °F 52.7 °F 29.93 in SSW 10.0 mph 18.0 mph 58 % 0.00 in 160 W/m2
16:56 68.0 °F 52.2 °F 29.93 in South 9.0 mph 16.0 mph 57 % 0.00 in 125 W/m2
17:01 67.8 °F 52.0 °F 29.93 in South 12.0 mph 21.0 mph 57 % 0.00 in 128 W/m2
17:06 67.6 °F 52.3 °F 29.93 in SSW 12.0 mph 21.0 mph 58 % 0.00 in 105 W/m2
17:11 67.6 °F 52.3 °F 29.93 in South 11.0 mph 20.0 mph 58 % 0.00 in 100 W/m2
17:16 67.5 °F 52.2 °F 29.93 in South 9.0 mph 20.0 mph 58 % 0.00 in 132 W/m2
17:21 67.6 °F 52.8 °F 29.94 in SSW 8.0 mph 15.0 mph 59 % 0.00 in 141 W/m2
17:26 67.6 °F 52.8 °F 29.94 in SSW 9.0 mph 16.0 mph 59 % 0.00 in 137 W/m2
17:31 67.6 °F 52.8 °F 29.94 in SSW 9.0 mph 16.0 mph 59 % 0.00 in 135 W/m2
17:36 67.6 °F 52.8 °F 29.94 in SSW 11.0 mph 23.0 mph 59 % 0.00 in 160 W/m2
17:41 67.6 °F 52.8 °F 29.93 in SSW 11.0 mph 23.0 mph 59 % 0.00 in 74 W/m2
17:46 67.6 °F 53.3 °F 29.93 in SSW 10.0 mph 19.0 mph 60 % 0.00 in 76 W/m2
17:51 67.5 °F 52.6 °F 29.92 in SSW 11.0 mph 22.0 mph 59 % 0.00 in 84 W/m2
17:56 67.5 °F 53.1 °F 29.92 in SSW 11.0 mph 22.0 mph 60 % 0.00 in 81 W/m2
18:01 67.5 °F 53.1 °F 29.92 in SSW 9.0 mph 18.0 mph 60 % 0.00 in 81 W/m2
18:06 67.5 °F 53.1 °F 29.92 in SSW 8.0 mph 18.0 mph 60 % 0.00 in 81 W/m2
18:11 67.5 °F 53.1 °F 29.92 in SSW 8.0 mph 20.0 mph 60 % 0.00 in 79 W/m2
18:16 67.5 °F 53.1 °F 29.91 in SSW 9.0 mph 20.0 mph 60 % 0.00 in 67 W/m2
18:21 67.3 °F 53.4 °F 29.92 in SSW 9.0 mph 22.0 mph 61 % 0.00 in 53 W/m2
18:26 67.3 °F 53.4 °F 29.92 in SSW 9.0 mph 22.0 mph 61 % 0.00 in 54 W/m2
18:31 67.3 °F 53.4 °F 29.91 in SSW 8.0 mph 13.0 mph 61 % 0.00 in 54 W/m2
18:36 67.1 °F 53.6 °F 29.91 in SSW 9.0 mph 20.0 mph 62 % 0.00 in 51 W/m2
18:41 66.9 °F 53.5 °F 29.91 in SSW 11.0 mph 20.0 mph 62 % 0.00 in 53 W/m2
18:46 66.9 °F 53.5 °F 29.91 in SSW 11.0 mph 19.0 mph 62 % 0.00 in 51 W/m2
18:51 66.9 °F 53.5 °F 29.90 in SSW 10.0 mph 19.0 mph 62 % 0.00 in 47 W/m2
18:56 66.9 °F 53.5 °F 29.90 in SSW 10.0 mph 18.0 mph 62 % 0.00 in 51 W/m2
19:01 66.9 °F 53.5 °F 29.90 in SSW 10.0 mph 18.0 mph 62 % 0.00 in 49 W/m2
19:06 66.9 °F 53.5 °F 29.89 in SSW 11.0 mph 22.0 mph 62 % 0.00 in 46 W/m2
19:11 66.9 °F 53.5 °F 29.89 in SSW 11.0 mph 22.0 mph 62 % 0.00 in 44 W/m2
19:16 66.9 °F 53.9 °F 29.89 in SSW 11.0 mph 20.0 mph 63 % 0.00 in 39 W/m2
19:21 66.9 °F 53.5 °F 29.89 in SSW 11.0 mph 20.0 mph 62 % 0.00 in 32 W/m2
19:26 66.9 °F 53.5 °F 29.89 in SSW 10.0 mph 18.0 mph 62 % 0.00 in 25 W/m2
19:31 66.9 °F 53.9 °F 29.88 in SSW 10.0 mph 18.0 mph 63 % 0.00 in 21 W/m2
19:36 66.9 °F 53.9 °F 29.88 in SSW 9.0 mph 18.0 mph 63 % 0.00 in 16 W/m2
19:41 66.9 °F 53.9 °F 29.88 in SSW 8.0 mph 14.0 mph 63 % 0.00 in 19 W/m2
19:46 66.9 °F 53.9 °F 29.89 in SSW 9.0 mph 20.0 mph 63 % 0.00 in 23 W/m2
19:52 66.7 °F 53.7 °F 29.88 in SSW 10.0 mph 20.0 mph 63 % 0.00 in 21 W/m2
19:57 66.7 °F 53.7 °F 29.89 in SSW 9.0 mph 16.0 mph 63 % 0.00 in 16 W/m2
20:02 66.7 °F 54.2 °F 29.89 in SSW 9.0 mph 15.0 mph 64 % 0.00 in 16 W/m2
20:07 66.6 °F 54.4 °F 29.89 in SSW 12.0 mph 27.0 mph 65 % 0.00 in 12 W/m2
20:12 66.4 °F 54.7 °F 29.90 in SSW 14.0 mph 27.0 mph 66 % 0.00 in 9 W/m2
20:17 66.0 °F 54.7 °F 29.90 in SW 12.0 mph 21.0 mph 67 % 0.00 in 7 W/m2
20:22 65.7 °F 54.4 °F 29.89 in SSW 11.0 mph 18.0 mph 67 % 0.00 in 0 W/m2
20:27 65.5 °F 54.6 °F 29.89 in SSW 10.0 mph 18.0 mph 68 % 0.00 in 0 W/m2
20:32 65.3 °F 54.9 °F 29.89 in SSW 9.0 mph 18.0 mph 69 % 0.00 in 0 W/m2
20:37 65.1 °F 55.1 °F 29.89 in SSW 8.0 mph 18.0 mph 70 % 0.00 in 0 W/m2
20:42 64.9 °F 54.9 °F 29.89 in SSW 9.0 mph 19.0 mph 70 % 0.00 in 0 W/m2
20:47 64.9 °F 55.3 °F 29.89 in SSW 10.0 mph 19.0 mph 71 % 0.00 in 0 W/m2
20:52 64.8 °F 55.1 °F 29.89 in SSW 10.0 mph 18.0 mph 71 % 0.00 in 0 W/m2
20:57 64.8 °F 55.1 °F 29.89 in SSW 10.0 mph 16.0 mph 71 % 0.00 in 0 W/m2
21:02 64.6 °F 55.0 °F 29.88 in SSW 9.0 mph 16.0 mph 71 % 0.00 in 0 W/m2
21:07 64.6 °F 55.0 °F 29.88 in SSW 7.0 mph 13.0 mph 71 % 0.00 in 0 W/m2
21:12 64.6 °F 55.0 °F 29.88 in SSW 8.0 mph 14.0 mph 71 % 0.00 in 0 W/m2
21:17 64.6 °F 55.3 °F 29.88 in South 9.0 mph 16.0 mph 72 % 0.00 in 0 W/m2
21:22 64.6 °F 55.3 °F 29.88 in South 10.0 mph 19.0 mph 72 % 0.00 in 0 W/m2
21:27 64.6 °F 55.0 °F 29.88 in SSW 10.0 mph 23.0 mph 71 % 0.00 in 0 W/m2
21:32 64.6 °F 55.0 °F 29.88 in SSW 11.0 mph 23.0 mph 71 % 0.00 in 0 W/m2
21:37 64.6 °F 55.0 °F 29.87 in SSW 12.0 mph 20.0 mph 71 % 0.00 in 0 W/m2
21:42 64.6 °F 55.0 °F 29.87 in SSW 12.0 mph 22.0 mph 71 % 0.00 in 0 W/m2
21:47 64.6 °F 55.0 °F 29.87 in SSW 11.0 mph 22.0 mph 71 % 0.00 in 0 W/m2
21:52 64.4 °F 54.8 °F 29.87 in SSW 11.0 mph 19.0 mph 71 % 0.00 in 0 W/m2
21:57 64.2 °F 54.6 °F 29.86 in South 11.0 mph 20.0 mph 71 % 0.00 in 0 W/m2
22:02 64.2 °F 54.6 °F 29.85 in South 10.0 mph 20.0 mph 71 % 0.00 in 0 W/m2
22:07 64.2 °F 54.6 °F 29.85 in SSW 12.0 mph 29.0 mph 71 % 0.00 in 0 W/m2
22:12 64.0 °F 54.4 °F 29.85 in SSW 13.0 mph 29.0 mph 71 % 0.00 in 0 W/m2
22:17 64.0 °F 54.4 °F 29.84 in South 11.0 mph 23.0 mph 71 % 0.00 in 0 W/m2
22:23 63.9 °F 54.3 °F 29.84 in South 9.0 mph 20.0 mph 71 % 0.00 in 0 W/m2
22:28 63.9 °F 54.3 °F 29.83 in SSE 10.0 mph 21.0 mph 71 % 0.00 in 0 W/m2
22:33 63.7 °F 54.1 °F 29.83 in SSE 11.0 mph 21.0 mph 71 % 0.00 in 0 W/m2
22:38 63.7 °F 54.1 °F 29.83 in South 9.0 mph 18.0 mph 71 % 0.00 in 0 W/m2
22:43 63.5 °F 53.9 °F 29.83 in South 8.0 mph 18.0 mph 71 % 0.00 in 0 W/m2
22:48 63.5 °F 53.9 °F 29.83 in South 7.0 mph 16.0 mph 71 % 0.00 in 0 W/m2
22:53 63.3 °F 53.8 °F 29.84 in South 8.0 mph 16.0 mph 71 % 0.00 in 0 W/m2
22:58 63.3 °F 53.8 °F 29.85 in SSW 8.0 mph 14.0 mph 71 % 0.00 in 0 W/m2
23:03 63.3 °F 53.8 °F 29.85 in SSW 7.0 mph 18.0 mph 71 % 0.00 in 0 W/m2
23:08 63.1 °F 53.2 °F 29.84 in SSW 10.0 mph 23.0 mph 70 % 0.00 in 0 W/m2
23:13 63.1 °F 53.2 °F 29.83 in SSW 11.0 mph 23.0 mph 70 % 0.00 in 0 W/m2
23:18 63.1 °F 53.2 °F 29.83 in SSW 10.0 mph 20.0 mph 70 % 0.00 in 0 W/m2
23:23 63.1 °F 53.2 °F 29.83 in SSW 9.0 mph 20.0 mph 70 % 0.00 in 0 W/m2
23:28 63.0 °F 53.0 °F 29.83 in SSW 8.0 mph 19.0 mph 70 % 0.00 in 0 W/m2
23:33 63.0 °F 53.0 °F 29.84 in SSW 8.0 mph 19.0 mph 70 % 0.00 in 0 W/m2
23:38 63.0 °F 53.0 °F 29.84 in SSW 7.0 mph 13.0 mph 70 % 0.00 in 0 W/m2
23:43 62.8 °F 52.8 °F 29.84 in SSW 7.0 mph 12.0 mph 70 % 0.00 in 0 W/m2
23:48 63.0 °F 53.8 °F 29.83 in South 6.0 mph 11.0 mph 72 % 0.00 in 0 W/m2
23:53 62.8 °F 54.4 °F 29.83 in South 7.0 mph 13.0 mph 74 % 0.00 in 0 W/m2
23:58 62.2 °F 53.8 °F 29.83 in South 8.0 mph 14.0 mph 74 % 0.00 in 0 W/m2
Delerius-Weather
Compliments of Weather Underground - 2.25 mb

Data updates at regular intervals.